createdAt,value
2023-07-29T00:00:46.936Z,26.56
2023-07-29T00:03:59.677Z,26.99
2023-07-29T00:09:48.546Z,27.17
2023-07-29T00:12:31.608Z,26.92
2023-07-29T00:12:44.273Z,26.88
2023-07-29T00:15:35.066Z,26.52
2023-07-29T00:18:30.895Z,26.72
2023-07-29T00:21:27.774Z,25.88
2023-07-29T00:26:54.812Z,26.10
2023-07-29T00:29:24.515Z,25.83
2023-07-29T00:32:13.991Z,25.63
2023-07-29T00:34:49.414Z,25.81
2023-07-29T00:37:22.721Z,25.80
2023-07-29T00:40:23.180Z,26.00
2023-07-29T00:43:09.655Z,26.10
2023-07-29T00:45:47.652Z,26.78
2023-07-29T00:48:46.352Z,26.67
2023-07-29T00:51:28.672Z,26.26
2023-07-29T00:54:07.506Z,26.65
2023-07-29T00:56:37.843Z,26.78
2023-07-29T00:59:10.566Z,26.68
2023-07-29T01:01:40.816Z,26.65
2023-07-29T01:04:15.721Z,26.95
2023-07-29T01:07:22.127Z,27.10
2023-07-29T01:10:09.780Z,26.60
2023-07-29T01:12:53.836Z,26.66
2023-07-29T01:15:57.677Z,26.47
2023-07-29T01:18:47.492Z,27.06
2023-07-29T01:21:29.547Z,27.06
2023-07-29T01:24:05.863Z,27.48
2023-07-29T01:26:42.940Z,27.57
2023-07-29T01:29:23.943Z,27.41
2023-07-29T01:32:13.416Z,27.41
2023-07-29T01:35:03.336Z,27.71
2023-07-29T01:37:39.759Z,27.21
2023-07-29T01:40:11.180Z,26.74
2023-07-29T01:42:40.689Z,27.10
2023-07-29T01:45:19.417Z,27.19
2023-07-29T01:47:48.868Z,27.17
2023-07-29T01:50:20.615Z,27.05
2023-07-29T01:52:49.717Z,27.05
2023-07-29T01:55:19.116Z,27.13
2023-07-29T01:57:51.886Z,27.15
2023-07-29T02:00:28.485Z,27.15
2023-07-29T02:03:22.821Z,27.11
2023-07-29T02:05:55.113Z,27.05
2023-07-29T02:09:13.432Z,27.01
2023-07-29T02:14:58.626Z,26.32
2023-07-29T02:17:52.848Z,26.42
2023-07-29T02:20:57.851Z,25.66
2023-07-29T02:23:57.199Z,25.98
2023-07-29T02:30:29.690Z,24.92
2023-07-29T02:33:03.328Z,25.16
2023-07-29T02:35:32.445Z,25.22
2023-07-29T02:38:02.325Z,25.17
2023-07-29T02:41:03.037Z,25.02
2023-07-29T02:47:48.886Z,23.53
2023-07-29T02:50:21.630Z,23.34
2023-07-29T02:52:51.784Z,23.34
2023-07-29T02:55:21.036Z,23.33
2023-07-29T02:57:54.129Z,23.24
2023-07-29T03:00:23.232Z,22.79
2023-07-29T03:02:52.952Z,22.91
2023-07-29T03:05:22.144Z,22.74
2023-07-29T03:07:51.243Z,22.66
2023-07-29T03:10:40.431Z,22.64
2023-07-29T03:13:09.771Z,22.43
2023-07-29T03:15:42.081Z,22.41
2023-07-29T03:18:14.077Z,22.48
2023-07-29T03:20:45.674Z,22.38
2023-07-29T03:23:15.310Z,22.16
2023-07-29T03:25:44.587Z,22.01
2023-07-29T03:28:14.043Z,21.90
2023-07-29T03:30:55.042Z,21.79
2023-07-29T03:33:39.531Z,21.69
2023-07-29T03:42:12.109Z,21.29
2023-07-29T03:46:26.374Z,21.00
2023-07-29T03:49:22.874Z,21.20
2023-07-29T03:51:56.946Z,21.39
2023-07-29T03:54:28.305Z,21.43
2023-07-29T03:56:57.995Z,21.39
2023-07-29T03:59:27.634Z,21.49
2023-07-29T04:02:19.443Z,21.25
2023-07-29T04:04:50.128Z,21.47
2023-07-29T04:07:28.995Z,21.48
2023-07-29T04:09:58.780Z,21.27
2023-07-29T04:12:27.987Z,20.94
2023-07-29T04:15:18.687Z,20.98
2023-07-29T04:17:56.485Z,20.64
2023-07-29T04:20:25.902Z,20.55
2023-07-29T04:22:54.940Z,20.43
2023-07-29T04:25:24.875Z,20.29
2023-07-29T04:27:54.314Z,20.53
2023-07-29T04:30:29.995Z,20.77
2023-07-29T04:33:29.677Z,20.73
2023-07-29T04:35:59.654Z,20.38
2023-07-29T04:38:55.678Z,20.32
2023-07-29T04:41:47.696Z,19.98
2023-07-29T04:44:49.993Z,20.39
2023-07-29T04:47:43.976Z,20.39
2023-07-29T04:50:29.164Z,20.23
2023-07-29T04:53:04.572Z,19.87
2023-07-29T04:55:39.862Z,19.44
2023-07-29T04:58:15.023Z,19.58
2023-07-29T05:01:12.078Z,19.62
2023-07-29T05:04:02.197Z,19.60
2023-07-29T05:06:36.785Z,19.37
2023-07-29T05:09:39.819Z,19.58
2023-07-29T05:12:21.607Z,19.59
2023-07-29T05:15:00.835Z,19.58
2023-07-29T05:17:55.710Z,19.53
2023-07-29T05:20:27.908Z,19.50
2023-07-29T05:23:21.204Z,19.40
2023-07-29T05:25:53.650Z,19.07
2023-07-29T05:28:26.656Z,19.21
2023-07-29T05:34:08.987Z,19.29
2023-07-29T05:36:41.367Z,19.27
2023-07-29T05:39:43.635Z,19.24
2023-07-29T05:42:16.006Z,19.23
2023-07-29T05:45:11.612Z,19.26
2023-07-29T05:47:51.709Z,19.10
2023-07-29T05:50:34.169Z,19.08
2023-07-29T05:59:12.994Z,18.76
2023-07-29T06:01:57.184Z,18.61
2023-07-29T06:04:52.266Z,18.66
2023-07-29T06:07:43.200Z,18.65
2023-07-29T06:10:54.239Z,18.68
2023-07-29T06:13:36.114Z,18.74
2023-07-29T06:16:11.460Z,18.69
2023-07-29T06:22:03.886Z,18.50
2023-07-29T06:25:03.692Z,18.45
2023-07-29T06:27:42.202Z,18.39
2023-07-29T06:30:45.480Z,18.46
2023-07-29T06:34:19.475Z,18.51
2023-07-29T06:39:43.959Z,18.27
2023-07-29T06:42:33.505Z,17.98
2023-07-29T06:45:08.077Z,18.01
2023-07-29T06:47:41.638Z,17.86
2023-07-29T06:50:32.484Z,17.74
2023-07-29T06:53:18.400Z,17.78
2023-07-29T06:55:57.809Z,17.97
2023-07-29T06:58:30.670Z,18.04
2023-07-29T07:01:06.804Z,18.06
2023-07-29T07:03:56.082Z,18.04
2023-07-29T07:06:27.720Z,17.55
2023-07-29T07:08:59.864Z,17.52
2023-07-29T07:11:37.051Z,17.74
2023-07-29T07:14:32.790Z,17.68
2023-07-29T07:17:04.666Z,17.48
2023-07-29T07:19:46.660Z,17.85
2023-07-29T07:22:26.089Z,17.78
2023-07-29T07:24:58.550Z,17.51
2023-07-29T07:27:30.283Z,17.40
2023-07-29T07:30:23.499Z,17.20
2023-07-29T07:32:56.223Z,17.11
2023-07-29T07:35:38.170Z,17.34
2023-07-29T07:38:14.295Z,17.03
2023-07-29T07:40:58.779Z,16.91
2023-07-29T07:43:45.540Z,17.19
2023-07-29T07:46:16.997Z,17.32
2023-07-29T07:48:51.985Z,17.39
2023-07-29T07:51:43.276Z,17.41
2023-07-29T07:54:12.636Z,17.21
2023-07-29T07:56:46.429Z,17.31
2023-07-29T07:59:18.363Z,17.38
2023-07-29T08:02:02.096Z,17.39
2023-07-29T08:04:40.233Z,17.29
2023-07-29T08:07:14.692Z,17.17
2023-07-29T08:09:45.691Z,17.21
2023-07-29T08:12:26.341Z,17.24
2023-07-29T08:14:58.150Z,17.17
2023-07-29T08:17:42.144Z,17.15
2023-07-29T08:20:16.984Z,17.14
2023-07-29T08:22:53.946Z,17.16
2023-07-29T08:25:41.522Z,17.09
2023-07-29T08:28:19.033Z,17.00
2023-07-29T08:34:07.417Z,16.83
2023-07-29T08:36:38.033Z,16.84
2023-07-29T08:39:12.545Z,16.83
2023-07-29T08:42:11.646Z,16.77
2023-07-29T08:45:16.625Z,16.73
2023-07-29T08:47:56.142Z,16.73
2023-07-29T08:50:31.725Z,16.79
2023-07-29T08:53:08.829Z,16.72
2023-07-29T08:55:53.733Z,16.69
2023-07-29T08:58:28.942Z,16.69
2023-07-29T09:00:58.752Z,16.71
2023-07-29T09:03:28.157Z,16.68
2023-07-29T09:06:01.295Z,16.64
2023-07-29T09:08:34.452Z,16.68
2023-07-29T09:11:06.246Z,16.68
2023-07-29T09:13:42.452Z,16.66
2023-07-29T09:16:32.280Z,16.56
2023-07-29T09:19:21.833Z,16.63
2023-07-29T09:21:57.765Z,16.69
2023-07-29T09:24:44.528Z,16.71
2023-07-29T09:27:42.568Z,16.56
2023-07-29T09:30:18.898Z,16.53
2023-07-29T09:32:59.080Z,16.56
2023-07-29T09:35:40.005Z,16.55
2023-07-29T09:38:20.412Z,16.40
2023-07-29T09:40:49.579Z,16.44
2023-07-29T09:43:40.007Z,16.38
2023-07-29T09:46:15.541Z,16.28
2023-07-29T09:48:47.936Z,16.37
2023-07-29T09:51:17.810Z,16.34
2023-07-29T09:54:03.815Z,16.24
2023-07-29T09:56:47.205Z,16.29
2023-07-29T09:59:21.714Z,16.32
2023-07-29T10:02:06.172Z,16.21
2023-07-29T10:04:39.506Z,16.13
2023-07-29T10:07:17.202Z,16.11
2023-07-29T10:09:49.478Z,16.08
2023-07-29T10:12:24.043Z,15.88
2023-07-29T10:15:01.137Z,16.12
2023-07-29T10:17:37.435Z,16.05
2023-07-29T10:20:11.048Z,16.02
2023-07-29T10:22:49.887Z,16.00
2023-07-29T10:25:45.324Z,16.00
2023-07-29T10:28:17.835Z,16.03
2023-07-29T10:30:56.355Z,16.10
2023-07-29T10:33:25.666Z,16.07
2023-07-29T10:35:56.906Z,15.97
2023-07-29T10:38:36.493Z,15.82
2023-07-29T10:41:05.655Z,15.91
2023-07-29T10:43:39.871Z,15.88
2023-07-29T10:46:27.369Z,15.87
2023-07-29T10:49:04.967Z,15.85
2023-07-29T10:51:41.046Z,15.75
2023-07-29T10:54:18.828Z,15.87
2023-07-29T10:57:09.780Z,15.90
2023-07-29T10:59:59.635Z,15.98
2023-07-29T11:02:36.011Z,15.87
2023-07-29T11:05:21.466Z,15.84
2023-07-29T11:07:53.833Z,15.83
2023-07-29T11:10:30.983Z,15.72
2023-07-29T11:13:01.277Z,15.98
2023-07-29T11:15:36.409Z,15.80
2023-07-29T11:18:05.790Z,15.78
2023-07-29T11:20:36.244Z,15.56
2023-07-29T11:23:08.706Z,15.54
2023-07-29T11:25:42.468Z,15.59
2023-07-29T11:28:11.659Z,15.71
2023-07-29T11:30:44.475Z,15.42
2023-07-29T11:33:15.174Z,15.55
2023-07-29T11:35:49.631Z,15.81
2023-07-29T11:38:23.140Z,15.91
2023-07-29T11:41:03.015Z,15.97
2023-07-29T11:43:38.448Z,15.98
2023-07-29T11:46:10.191Z,16.06
2023-07-29T11:48:40.722Z,16.13
2023-07-29T11:51:11.095Z,16.09
2023-07-29T11:53:40.484Z,15.97
2023-07-29T11:56:18.817Z,15.77
2023-07-29T11:58:48.468Z,15.81
2023-07-29T12:01:21.585Z,15.77
2023-07-29T12:04:15.155Z,16.04
2023-07-29T12:06:46.856Z,15.83
2023-07-29T12:09:19.506Z,15.86
2023-07-29T12:14:40.410Z,15.85
2023-07-29T12:17:19.769Z,15.90
2023-07-29T12:20:09.161Z,15.84
2023-07-29T12:22:42.054Z,15.58
2023-07-29T12:25:14.106Z,15.72
2023-07-29T12:27:46.061Z,15.79
2023-07-29T12:31:12.574Z,15.67
2023-07-29T12:33:59.163Z,15.56
2023-07-29T12:36:51.696Z,15.75
2023-07-29T12:39:28.962Z,15.79
2023-07-29T12:42:20.672Z,15.71
2023-07-29T12:44:50.638Z,15.65
2023-07-29T12:47:22.993Z,15.43
2023-07-29T12:50:05.813Z,15.58
2023-07-29T12:52:35.079Z,15.61
2023-07-29T12:55:06.614Z,15.73
2023-07-29T12:57:48.526Z,15.84
2023-07-29T13:00:24.390Z,15.70
2023-07-29T13:03:01.026Z,15.71
2023-07-29T13:06:07.538Z,15.50
2023-07-29T13:09:14.097Z,15.46
2023-07-29T13:11:58.172Z,15.67
2023-07-29T13:14:45.622Z,15.65
2023-07-29T13:17:34.004Z,15.64
2023-07-29T13:20:17.563Z,15.65
2023-07-29T13:23:06.019Z,15.77
2023-07-29T13:29:21.353Z,15.61
2023-07-29T13:31:30.234Z,15.72
2023-07-29T13:31:56.729Z,15.77
2023-07-29T13:34:28.874Z,15.71
2023-07-29T13:36:59.820Z,15.77
2023-07-29T13:39:29.476Z,15.69
2023-07-29T13:41:58.556Z,15.75
2023-07-29T13:44:32.148Z,15.88
2023-07-29T13:47:01.431Z,15.71
2023-07-29T13:49:33.022Z,15.65
2023-07-29T13:52:02.654Z,15.56
2023-07-29T13:54:31.686Z,15.72
2023-07-29T13:57:00.687Z,15.82
2023-07-29T13:59:29.968Z,15.80
2023-07-29T14:01:59.188Z,15.76
2023-07-29T14:04:28.278Z,15.67
2023-07-29T14:06:59.622Z,15.37
2023-07-29T14:09:29.700Z,15.55
2023-07-29T14:11:58.720Z,15.68
2023-07-29T14:14:30.821Z,15.59
2023-07-29T14:17:09.460Z,15.81
2023-07-29T14:19:41.151Z,15.68
2023-07-29T14:22:13.059Z,15.39
2023-07-29T14:24:45.550Z,15.62
2023-07-29T14:27:16.009Z,15.74
2023-07-29T14:29:47.508Z,15.78
2023-07-29T14:32:16.781Z,15.52
2023-07-29T14:35:16.334Z,15.59
2023-07-29T14:41:31.830Z,15.60
2023-07-29T14:44:27.042Z,15.51
2023-07-29T14:46:51.057Z,15.59
2023-07-29T14:47:02.553Z,15.65
2023-07-29T14:49:39.045Z,15.60
2023-07-29T14:52:35.784Z,15.85
2023-07-29T14:55:30.336Z,15.96
2023-07-29T14:58:39.665Z,16.14
2023-07-29T15:01:11.042Z,15.99
2023-07-29T15:04:51.726Z,16.00
2023-07-29T15:08:12.297Z,16.24
2023-07-29T15:12:08.286Z,16.07
2023-07-29T15:16:22.984Z,16.28
2023-07-29T15:18:50.306Z,16.49
2023-07-29T15:21:22.546Z,16.42
2023-07-29T15:23:57.819Z,16.51
2023-07-29T15:26:44.573Z,16.44
2023-07-29T15:29:18.542Z,16.51
2023-07-29T15:34:57.677Z,16.53
2023-07-29T15:37:30.152Z,16.57
2023-07-29T15:40:08.310Z,16.67
2023-07-29T15:42:43.886Z,16.53
2023-07-29T15:45:25.177Z,16.69
2023-07-29T15:47:57.509Z,16.53
2023-07-29T15:50:26.599Z,16.52
2023-07-29T15:52:56.363Z,16.74
2023-07-29T15:55:25.437Z,16.90
2023-07-29T15:58:29.797Z,16.85
2023-07-29T16:01:04.714Z,16.83
2023-07-29T16:03:34.305Z,16.75
2023-07-29T16:06:04.132Z,16.61
2023-07-29T16:08:33.494Z,16.75
2023-07-29T16:11:03.429Z,16.97
2023-07-29T16:13:32.440Z,17.04
2023-07-29T16:16:01.799Z,17.25
2023-07-29T16:18:30.969Z,17.28
2023-07-29T16:21:03.768Z,17.25
2023-07-29T16:23:39.607Z,17.08
2023-07-29T16:26:19.942Z,17.41
2023-07-29T16:28:51.126Z,17.54
2023-07-29T16:31:20.911Z,17.64
2023-07-29T16:33:53.368Z,17.65
2023-07-29T16:36:28.112Z,17.82
2023-07-29T16:39:02.836Z,17.87
2023-07-29T16:44:45.366Z,17.89
2023-07-29T16:47:14.666Z,17.97
2023-07-29T16:49:43.773Z,17.92
2023-07-29T16:52:12.897Z,18.17
2023-07-29T16:54:42.361Z,18.27
2023-07-29T16:57:12.844Z,18.28
2023-07-29T16:59:45.059Z,18.40
2023-07-29T17:02:14.300Z,18.48
2023-07-29T17:04:43.718Z,18.53
2023-07-29T17:07:15.992Z,18.43
2023-07-29T17:09:58.285Z,18.65
2023-07-29T17:12:42.003Z,18.69
2023-07-29T17:15:49.846Z,18.73
2023-07-29T17:18:19.118Z,18.79
2023-07-29T17:20:48.276Z,18.84
2023-07-29T17:23:19.362Z,18.94
2023-07-29T17:25:48.542Z,18.96
2023-07-29T17:28:19.319Z,19.10
2023-07-29T17:30:57.898Z,19.23
2023-07-29T17:33:26.983Z,19.30
2023-07-29T17:36:13.881Z,19.47
2023-07-29T17:38:43.249Z,19.37
2023-07-29T17:41:15.506Z,19.57
2023-07-29T17:43:46.790Z,19.51
2023-07-29T17:46:19.098Z,19.39
2023-07-29T17:48:49.075Z,19.61
2023-07-29T17:51:20.791Z,19.79
2023-07-29T17:53:53.068Z,19.89
2023-07-29T17:56:23.896Z,19.89
2023-07-29T17:58:56.223Z,19.89
2023-07-29T18:01:26.697Z,19.87
2023-07-29T18:03:55.980Z,19.82
2023-07-29T18:06:30.945Z,19.88
2023-07-29T18:09:02.647Z,20.12
2023-07-29T18:11:31.913Z,20.42
2023-07-29T18:14:01.032Z,20.51
2023-07-29T18:16:39.237Z,20.69
2023-07-29T18:19:32.065Z,20.69
2023-07-29T18:22:01.567Z,20.78
2023-07-29T18:24:30.954Z,20.98
2023-07-29T18:27:16.024Z,20.93
2023-07-29T18:29:47.942Z,20.76
2023-07-29T18:32:17.096Z,20.79
2023-07-29T18:35:05.064Z,20.69
2023-07-29T18:37:36.225Z,20.83
2023-07-29T18:40:31.389Z,21.22
2023-07-29T18:43:19.227Z,21.17
2023-07-29T18:45:52.150Z,21.21
2023-07-29T18:48:29.649Z,21.53
2023-07-29T18:51:01.718Z,21.13
2023-07-29T18:53:33.392Z,21.59
2023-07-29T18:56:08.408Z,21.46
2023-07-29T18:58:54.215Z,21.94
2023-07-29T19:01:26.793Z,21.80
2023-07-29T19:03:56.361Z,22.21
2023-07-29T19:07:19.846Z,21.71
2023-07-29T19:09:49.318Z,21.83
2023-07-29T19:16:21.508Z,21.82
2023-07-29T19:19:01.921Z,22.27
2023-07-29T19:21:31.010Z,21.74
2023-07-29T19:24:01.055Z,22.13
2023-07-29T19:26:30.589Z,22.35
2023-07-29T19:28:59.822Z,22.72
2023-07-29T19:31:29.317Z,22.40
2023-07-29T19:33:58.385Z,22.68
2023-07-29T19:36:37.579Z,22.85
2023-07-29T19:39:07.165Z,22.69
2023-07-29T19:41:38.487Z,22.77
2023-07-29T19:44:21.825Z,23.16
2023-07-29T19:46:58.475Z,23.49
2023-07-29T19:49:30.294Z,23.56
2023-07-29T19:52:03.217Z,23.37
2023-07-29T19:54:33.772Z,23.62
2023-07-29T19:57:04.524Z,23.85
2023-07-29T19:59:49.917Z,24.04
2023-07-29T20:02:21.695Z,23.86
2023-07-29T20:04:56.698Z,24.14
2023-07-29T20:07:26.885Z,23.78
2023-07-29T20:09:56.192Z,23.89
2023-07-29T20:12:28.287Z,23.99
2023-07-29T20:15:02.315Z,24.21
2023-07-29T20:18:05.927Z,24.10
2023-07-29T20:20:38.226Z,24.19
2023-07-29T20:23:10.404Z,24.29
2023-07-29T20:25:39.669Z,24.66
2023-07-29T20:28:40.451Z,24.26
2023-07-29T20:31:34.162Z,23.86
2023-07-29T20:34:09.748Z,24.05
2023-07-29T20:39:43.156Z,24.26
2023-07-29T20:45:24.729Z,24.46
2023-07-29T20:47:57.164Z,24.24
2023-07-29T20:50:30.144Z,24.67
2023-07-29T20:53:03.392Z,24.46
2023-07-29T20:55:32.825Z,24.90
2023-07-29T20:58:04.880Z,24.77
2023-07-29T21:09:42.175Z,25.56
2023-07-29T21:23:35.054Z,25.68
2023-07-29T21:26:08.092Z,25.03
2023-07-29T21:35:48.014Z,25.59
2023-07-29T21:39:38.131Z,25.14
2023-07-29T21:42:28.031Z,24.99
2023-07-29T21:44:34.463Z,24.84
2023-07-29T21:45:22.689Z,25.27
2023-07-29T21:48:04.362Z,25.36
2023-07-29T21:56:11.708Z,26.03
2023-07-29T21:59:07.365Z,25.56
2023-07-29T22:01:41.837Z,26.07
2023-07-29T22:04:11.515Z,25.50
2023-07-29T22:06:43.330Z,25.97
2023-07-29T22:09:12.864Z,25.30
2023-07-29T22:11:41.839Z,25.23
2023-07-29T22:14:11.055Z,24.83
2023-07-29T22:16:40.067Z,25.40
2023-07-29T22:19:10.190Z,25.76
2023-07-29T22:21:39.537Z,25.36
2023-07-29T22:24:09.088Z,25.81
2023-07-29T22:26:41.092Z,25.95
2023-07-29T22:29:10.503Z,26.01
2023-07-29T22:31:43.060Z,26.93
2023-07-29T22:34:15.638Z,26.56
2023-07-29T22:36:44.721Z,26.53
2023-07-29T22:39:15.959Z,25.87
2023-07-29T22:41:45.027Z,26.63
2023-07-29T22:44:14.068Z,27.00
2023-07-29T22:46:45.724Z,26.39
2023-07-29T22:49:18.843Z,26.93
2023-07-29T22:52:00.598Z,26.33
2023-07-29T22:54:55.684Z,26.08
2023-07-29T22:57:58.094Z,25.96
2023-07-29T23:01:55.731Z,25.92
2023-07-29T23:04:32.405Z,26.55
2023-07-29T23:07:03.553Z,26.38
2023-07-29T23:09:35.221Z,25.88
2023-07-29T23:12:28.998Z,26.45
2023-07-29T23:15:38.996Z,26.71
2023-07-29T23:18:08.767Z,25.81
2023-07-29T23:20:42.922Z,26.28
2023-07-29T23:23:12.558Z,26.18
2023-07-29T23:25:44.144Z,25.93
2023-07-29T23:28:15.555Z,25.79
2023-07-29T23:30:44.832Z,26.28
2023-07-29T23:33:13.852Z,26.25
2023-07-29T23:35:43.013Z,26.27
2023-07-29T23:38:40.865Z,26.52
2023-07-29T23:41:30.221Z,25.88
2023-07-29T23:44:05.211Z,25.52
2023-07-29T23:48:18.708Z,25.29
2023-07-29T23:51:06.436Z,25.35
2023-07-29T23:53:38.801Z,25.20
2023-07-29T23:56:12.346Z,25.60
2023-07-29T23:59:29.658Z,25.30
